createdAt,value
2022-10-02T00:00:36.329Z,98834.47
2022-10-02T00:03:40.027Z,98826.78
2022-10-02T00:06:47.985Z,98830.00
2022-10-02T00:09:53.236Z,98824.47
2022-10-02T00:12:58.390Z,98824.72
2022-10-02T00:16:03.346Z,98824.78
2022-10-02T00:19:06.407Z,98818.75
2022-10-02T00:22:26.689Z,98816.38
2022-10-02T00:25:34.532Z,98804.41
2022-10-02T00:28:42.723Z,98807.41
2022-10-02T00:31:50.462Z,98804.53
2022-10-02T00:35:04.435Z,98795.88
2022-10-02T00:38:12.761Z,98791.91
2022-10-02T00:41:32.108Z,98787.19
2022-10-02T00:44:49.688Z,98782.47
2022-10-02T00:47:55.778Z,98786.06
2022-10-02T00:51:04.818Z,98778.97
2022-10-02T00:54:14.366Z,98775.84
2022-10-02T00:57:23.916Z,98769.91
2022-10-02T01:00:27.475Z,98767.44
2022-10-02T01:03:31.873Z,98766.06
2022-10-02T01:06:34.792Z,98760.03
2022-10-02T01:09:38.231Z,98755.91
2022-10-02T01:12:42.766Z,98751.94
2022-10-02T01:15:47.651Z,98761.28
2022-10-02T01:18:50.442Z,98756.84
2022-10-02T01:21:54.883Z,98755.28
2022-10-02T01:25:00.238Z,98757.97
2022-10-02T01:28:03.004Z,98742.97
2022-10-02T01:31:08.423Z,98736.53
2022-10-02T01:34:11.539Z,98736.78
2022-10-02T01:37:14.574Z,98726.91
2022-10-02T01:40:29.757Z,98733.28
2022-10-02T01:43:33.907Z,98726.44
2022-10-02T01:46:38.529Z,98727.72
2022-10-02T01:49:48.701Z,98720.91
2022-10-02T01:52:59.279Z,98719.06
2022-10-02T01:56:07.950Z,98705.34
2022-10-02T01:59:18.071Z,98709.47
2022-10-02T02:02:24.390Z,98700.13
2022-10-02T02:05:32.197Z,98685.34
2022-10-02T02:08:37.403Z,98689.50
2022-10-02T02:11:45.875Z,98685.91
2022-10-02T02:14:49.572Z,98680.41
2022-10-02T02:17:55.647Z,98672.00
2022-10-02T02:21:00.191Z,98672.00
2022-10-02T02:24:05.028Z,98661.28
2022-10-02T02:27:11.168Z,98656.94
2022-10-02T02:30:15.005Z,98639.31
2022-10-02T02:33:19.339Z,98640.88
2022-10-02T02:36:25.139Z,98635.44
2022-10-02T02:39:30.108Z,98632.22
2022-10-02T02:42:37.502Z,98622.69
2022-10-02T02:45:43.143Z,98621.56
2022-10-02T02:48:47.799Z,98621.22
2022-10-02T02:51:51.542Z,98615.88
2022-10-02T02:54:57.292Z,98612.09
2022-10-02T02:58:03.931Z,98604.88
2022-10-02T03:01:07.278Z,98604.59
2022-10-02T03:04:11.334Z,98596.03
2022-10-02T03:07:16.141Z,98601.38
2022-10-02T03:10:22.402Z,98589.66
2022-10-02T03:13:33.016Z,98577.75
2022-10-02T03:16:40.987Z,98587.63
2022-10-02T03:19:46.639Z,98582.91
2022-10-02T03:22:55.072Z,98590.50
2022-10-02T03:26:01.718Z,98584.28
2022-10-02T03:29:09.311Z,98590.59
2022-10-02T03:32:14.769Z,98573.03
2022-10-02T03:35:18.563Z,98560.19
2022-10-02T03:38:23.053Z,98554.84
2022-10-02T03:41:25.674Z,98549.69
2022-10-02T03:44:29.801Z,98546.63
2022-10-02T03:47:32.525Z,98547.09
2022-10-02T03:50:36.540Z,98548.13
2022-10-02T03:53:40.365Z,98536.56
2022-10-02T03:56:45.855Z,98534.56
2022-10-02T03:59:52.813Z,98519.31
2022-10-02T04:02:59.208Z,98523.31
2022-10-02T04:06:04.918Z,98512.94
2022-10-02T04:09:11.963Z,98516.53
2022-10-02T04:12:17.013Z,98521.06
2022-10-02T04:15:24.489Z,98507.78
2022-10-02T04:18:30.447Z,98504.63
2022-10-02T04:21:36.621Z,98501.22
2022-10-02T04:24:42.834Z,98507.88
2022-10-02T04:27:49.160Z,98511.47
2022-10-02T04:30:54.682Z,98507.78
2022-10-02T04:34:00.304Z,98504.25
2022-10-02T04:37:12.232Z,98495.22
2022-10-02T04:40:29.592Z,98489.41
2022-10-02T04:43:41.003Z,98483.78
2022-10-02T04:46:52.687Z,98486.94
2022-10-02T04:50:05.541Z,98471.41
2022-10-02T04:53:17.547Z,98470.66
2022-10-02T04:56:33.728Z,98474.63
2022-10-02T04:59:54.331Z,98472.25
2022-10-02T05:03:16.669Z,98472.03
2022-10-02T05:06:29.512Z,98479.72
2022-10-02T05:09:34.516Z,98465.50
2022-10-02T05:12:44.608Z,98465.19
2022-10-02T05:15:55.624Z,98449.59
2022-10-02T05:19:05.096Z,98450.06
2022-10-02T05:22:18.395Z,98439.78
2022-10-02T05:25:39.223Z,98446.16
2022-10-02T05:28:56.754Z,98446.38
2022-10-02T05:32:15.729Z,98432.50
2022-10-02T05:35:27.180Z,98432.78
2022-10-02T05:38:43.332Z,98430.72
2022-10-02T05:41:50.205Z,98437.31
2022-10-02T05:44:55.224Z,98424.53
2022-10-02T05:48:04.589Z,98422.06
2022-10-02T05:51:11.412Z,98421.88
2022-10-02T05:54:20.146Z,98417.25
2022-10-02T05:57:27.538Z,98409.00
2022-10-02T06:00:33.947Z,98397.28
2022-10-02T06:03:40.467Z,98398.72
2022-10-02T06:06:47.490Z,98391.16
2022-10-02T06:09:53.500Z,98387.50
2022-10-02T06:13:00.463Z,98386.88
2022-10-02T06:16:06.972Z,98387.97
2022-10-02T06:19:12.828Z,98391.66
2022-10-02T06:22:20.098Z,98390.06
2022-10-02T06:25:25.494Z,98385.47
2022-10-02T06:28:30.525Z,98366.34
2022-10-02T06:31:39.307Z,98375.56
2022-10-02T06:34:45.788Z,98393.75
2022-10-02T06:37:58.502Z,98375.19
2022-10-02T06:41:04.105Z,98381.75
2022-10-02T06:44:14.931Z,98372.47
2022-10-02T06:47:22.516Z,98364.84
2022-10-02T06:50:30.852Z,98352.53
2022-10-02T06:53:43.978Z,98346.56
2022-10-02T06:56:54.704Z,98327.66
2022-10-02T07:00:03.916Z,98319.81
2022-10-02T07:03:19.970Z,98318.06
2022-10-02T07:06:33.469Z,98309.63
2022-10-02T07:09:52.034Z,98293.28
2022-10-02T07:13:03.534Z,98303.53
2022-10-02T07:16:18.704Z,98298.72
2022-10-02T07:19:40.436Z,98304.06
2022-10-02T07:22:57.390Z,98312.41
2022-10-02T07:26:13.406Z,98317.97
2022-10-02T07:29:24.054Z,98309.72
2022-10-02T07:32:42.512Z,98316.06
2022-10-02T07:35:47.878Z,98317.75
2022-10-02T07:39:03.168Z,98322.50
2022-10-02T07:42:26.959Z,98323.13
2022-10-02T07:45:35.458Z,98315.91
2022-10-02T07:48:46.887Z,98312.81
2022-10-02T07:51:55.005Z,98299.94
2022-10-02T07:55:05.687Z,98283.69
2022-10-02T07:58:12.178Z,98277.28
2022-10-02T08:01:18.859Z,98263.50
2022-10-02T08:04:33.375Z,98250.13
2022-10-02T08:07:38.822Z,98227.00
2022-10-02T08:10:45.352Z,98234.44
2022-10-02T08:13:50.853Z,98241.06
2022-10-02T08:16:56.211Z,98225.81
2022-10-02T08:20:03.280Z,98222.66
2022-10-02T08:23:08.227Z,98220.81
2022-10-02T08:26:13.622Z,98210.97
2022-10-02T08:29:18.713Z,98203.13
2022-10-02T08:32:23.663Z,98188.28
2022-10-02T08:35:33.144Z,98178.75
2022-10-02T08:38:38.635Z,98178.81
2022-10-02T08:42:04.320Z,98173.44
2022-10-02T08:45:26.705Z,98163.50
2022-10-02T08:48:44.318Z,98147.41
2022-10-02T08:52:12.581Z,98139.56
2022-10-02T08:55:34.020Z,98140.41
2022-10-02T08:58:48.381Z,98139.56
2022-10-02T09:02:11.477Z,98134.00
2022-10-02T09:05:29.007Z,98129.22
2022-10-02T09:08:51.750Z,98137.28
2022-10-02T09:12:12.133Z,98144.50
2022-10-02T09:15:16.532Z,98141.59
2022-10-02T09:18:30.183Z,98142.88
2022-10-02T09:21:47.700Z,98126.31
2022-10-02T09:25:02.344Z,98131.06
2022-10-02T09:28:36.497Z,98137.25
2022-10-02T09:31:56.946Z,98119.09
2022-10-02T09:35:20.650Z,98128.00
2022-10-02T09:38:42.657Z,98113.16
2022-10-02T09:42:04.020Z,98100.34
2022-10-02T09:45:25.926Z,98097.47
2022-10-02T09:48:45.449Z,98086.72
2022-10-02T09:52:03.289Z,98082.00
2022-10-02T09:55:22.115Z,98077.44
2022-10-02T09:58:48.659Z,98070.63
2022-10-02T10:02:09.686Z,98067.72
2022-10-02T10:05:28.272Z,98062.97
2022-10-02T10:08:48.818Z,98058.22
2022-10-02T10:12:06.425Z,98033.25
2022-10-02T10:15:23.645Z,98037.56
2022-10-02T10:18:48.022Z,98026.22
2022-10-02T10:22:20.630Z,98034.28
2022-10-02T10:25:36.935Z,98026.25
2022-10-02T10:29:02.644Z,98016.53
2022-10-02T10:32:23.293Z,98016.94
2022-10-02T10:35:34.237Z,98007.47
2022-10-02T10:38:44.028Z,98005.00
2022-10-02T10:42:07.041Z,97998.81
2022-10-02T10:45:18.417Z,97982.09
2022-10-02T10:48:38.790Z,97979.69
2022-10-02T10:51:48.595Z,97971.56
2022-10-02T10:54:56.830Z,97966.81
2022-10-02T10:58:08.735Z,97955.28
2022-10-02T11:01:15.225Z,97959.16
2022-10-02T11:04:37.157Z,97963.31
2022-10-02T11:07:53.805Z,97952.97
2022-10-02T11:11:01.748Z,97950.50
2022-10-02T11:14:19.579Z,97943.25
2022-10-02T11:17:31.235Z,97919.91
2022-10-02T11:20:51.615Z,97911.88
2022-10-02T11:24:00.075Z,97896.81
2022-10-02T11:27:14.218Z,97888.94
2022-10-02T11:30:23.386Z,97897.22
2022-10-02T11:33:35.222Z,97888.34
2022-10-02T11:36:48.708Z,97890.81
2022-10-02T11:40:06.521Z,97888.13
2022-10-02T11:43:18.406Z,97880.72
2022-10-02T11:46:36.558Z,97878.44
2022-10-02T11:50:02.109Z,97865.25
2022-10-02T11:53:34.510Z,97876.81
2022-10-02T11:57:00.874Z,97874.53
2022-10-02T12:00:14.921Z,97867.47
2022-10-02T12:03:23.354Z,97872.03
2022-10-02T12:06:44.420Z,97861.28
2022-10-02T12:09:55.043Z,97855.31
2022-10-02T12:13:03.789Z,97846.88
2022-10-02T12:16:11.940Z,97833.66
2022-10-02T12:19:27.389Z,97818.03
2022-10-02T12:22:53.026Z,97812.19
2022-10-02T12:26:30.469Z,97805.38
2022-10-02T12:29:46.629Z,97795.69
2022-10-02T12:32:58.559Z,97801.03
2022-10-02T12:36:19.405Z,97782.75
2022-10-02T12:39:32.770Z,97786.16
2022-10-02T12:42:48.949Z,97784.75
2022-10-02T12:46:04.204Z,97770.31
2022-10-02T12:49:16.801Z,97759.59
2022-10-02T12:52:41.884Z,97747.84
2022-10-02T12:56:03.411Z,97748.81
2022-10-02T12:59:15.656Z,97739.28
2022-10-02T13:03:00.706Z,97731.69
2022-10-02T13:06:26.754Z,97729.53
2022-10-02T13:09:39.520Z,97731.84
2022-10-02T13:12:52.646Z,97732.81
2022-10-02T13:16:01.504Z,97732.22
2022-10-02T13:19:10.863Z,97695.91
2022-10-02T13:22:21.657Z,97693.06
2022-10-02T13:25:34.804Z,97682.91
2022-10-02T13:28:50.013Z,97673.81
2022-10-02T13:32:02.233Z,97663.91
2022-10-02T13:35:26.577Z,97661.06
2022-10-02T13:38:43.437Z,97663.31
2022-10-02T13:41:56.052Z,97643.50
2022-10-02T13:45:05.097Z,97625.72
2022-10-02T13:48:15.003Z,97632.97
2022-10-02T13:51:21.931Z,97626.53
2022-10-02T13:54:37.167Z,97613.75
2022-10-02T13:57:51.841Z,97605.47
2022-10-02T14:01:00.237Z,97605.91
2022-10-02T14:04:24.851Z,97596.47
2022-10-02T14:07:43.678Z,97589.03
2022-10-02T14:10:54.232Z,97573.28
2022-10-02T14:14:04.099Z,97561.94
2022-10-02T14:17:12.894Z,97561.78
2022-10-02T14:20:24.817Z,97552.06
2022-10-02T14:23:37.546Z,97542.94
2022-10-02T14:26:54.084Z,97548.25
2022-10-02T14:30:03.117Z,97541.34
2022-10-02T14:33:09.956Z,97531.28
2022-10-02T14:36:19.863Z,97541.03
2022-10-02T14:39:29.513Z,97531.22
2022-10-02T14:42:40.761Z,97522.44
2022-10-02T14:46:03.061Z,97517.19
2022-10-02T14:49:18.051Z,97497.94
2022-10-02T14:52:30.462Z,97497.66
2022-10-02T14:55:42.137Z,97485.19
2022-10-02T14:58:55.075Z,97486.44
2022-10-02T15:02:13.829Z,97472.09
2022-10-02T15:05:27.555Z,97469.38
2022-10-02T15:08:34.990Z,97466.19
2022-10-02T15:11:53.070Z,97464.56
2022-10-02T15:15:00.796Z,97464.34
2022-10-02T15:18:28.020Z,97450.19
2022-10-02T15:21:36.981Z,97448.69
2022-10-02T15:24:47.127Z,97435.91
2022-10-02T15:28:12.030Z,97430.31
2022-10-02T15:31:24.383Z,97417.25
2022-10-02T15:34:34.695Z,97414.78
2022-10-02T15:37:43.767Z,97418.94
2022-10-02T15:40:56.647Z,97401.22
2022-10-02T15:44:07.507Z,97408.50
2022-10-02T15:47:20.508Z,97409.56
2022-10-02T15:50:37.669Z,97409.31
2022-10-02T15:53:50.428Z,97421.50
2022-10-02T15:57:09.904Z,97413.47
2022-10-02T16:00:24.197Z,97416.47
2022-10-02T16:03:32.321Z,97423.34
2022-10-02T16:06:53.346Z,97421.31
2022-10-02T16:10:07.044Z,97422.09
2022-10-02T16:13:32.022Z,97425.16
2022-10-02T16:16:51.574Z,97428.78
2022-10-02T16:20:05.411Z,97428.41
2022-10-02T16:23:24.343Z,97429.56
2022-10-02T16:26:44.155Z,97420.50
2022-10-02T16:29:58.396Z,97422.94
2022-10-02T16:33:11.778Z,97423.44
2022-10-02T16:36:30.094Z,97425.28
2022-10-02T16:39:45.447Z,97437.16
2022-10-02T16:42:59.387Z,97438.28
2022-10-02T16:46:08.000Z,97435.44
2022-10-02T16:49:19.664Z,97440.56
2022-10-02T16:52:27.477Z,97445.56
2022-10-02T16:55:33.636Z,97444.47
2022-10-02T16:58:43.271Z,97450.81
2022-10-02T17:02:16.908Z,97450.22
2022-10-02T17:05:27.116Z,97463.78
2022-10-02T17:08:33.012Z,97458.88
2022-10-02T17:11:38.019Z,97470.13
2022-10-02T17:14:51.828Z,97472.81
2022-10-02T17:18:08.406Z,97478.38
2022-10-02T17:21:14.021Z,97471.16
2022-10-02T17:24:21.583Z,97472.97
2022-10-02T17:27:34.149Z,97482.44
2022-10-02T17:31:00.568Z,97484.91
2022-10-02T17:34:26.507Z,97477.69
2022-10-02T17:37:51.446Z,97478.34
2022-10-02T17:41:01.784Z,97486.56
2022-10-02T17:44:11.897Z,97485.31
2022-10-02T17:47:40.246Z,97476.50
2022-10-02T17:51:02.006Z,97470.97
2022-10-02T17:54:32.751Z,97476.34
2022-10-02T17:57:58.565Z,97468.88
2022-10-02T18:01:12.768Z,97472.59
2022-10-02T18:04:29.629Z,97478.34
2022-10-02T18:07:46.614Z,97485.94
2022-10-02T18:11:02.850Z,97472.81
2022-10-02T18:14:13.167Z,97491.91
2022-10-02T18:17:22.664Z,97475.28
2022-10-02T18:20:38.820Z,97483.28
2022-10-02T18:23:59.548Z,97475.53
2022-10-02T18:27:27.200Z,97477.38
2022-10-02T18:30:38.393Z,97476.97
2022-10-02T18:33:57.858Z,97488.91
2022-10-02T18:37:09.777Z,97486.03
2022-10-02T18:40:25.646Z,97487.31
2022-10-02T18:43:38.308Z,97479.84
2022-10-02T18:46:51.873Z,97481.34
2022-10-02T18:50:04.546Z,97490.81
2022-10-02T18:53:29.097Z,97493.25
2022-10-02T18:56:51.508Z,97500.91
2022-10-02T19:00:01.758Z,97499.06
2022-10-02T19:03:21.474Z,97498.63
2022-10-02T19:06:28.043Z,97502.31
2022-10-02T19:09:31.682Z,97502.75
2022-10-02T19:12:36.677Z,97512.19
2022-10-02T19:15:41.775Z,97522.28
2022-10-02T19:18:48.467Z,97524.94
2022-10-02T19:21:54.933Z,97523.47
2022-10-02T19:25:05.677Z,97516.69
2022-10-02T19:28:08.794Z,97510.53
2022-10-02T19:31:13.391Z,97507.22
2022-10-02T19:34:20.760Z,97513.88
2022-10-02T19:37:26.686Z,97513.06
2022-10-02T19:40:36.116Z,97507.66
2022-10-02T19:43:45.538Z,97505.19
2022-10-02T19:46:49.952Z,97504.19
2022-10-02T19:49:59.829Z,97503.75
2022-10-02T19:53:06.965Z,97506.00
2022-10-02T19:56:12.935Z,97499.84
2022-10-02T19:59:18.591Z,97496.09
2022-10-02T20:02:24.353Z,97501.63
2022-10-02T20:05:30.343Z,97505.41
2022-10-02T20:08:37.379Z,97493.88
2022-10-02T20:11:42.907Z,97505.59
2022-10-02T20:14:47.460Z,97502.50
2022-10-02T20:17:49.491Z,97499.59
2022-10-02T20:20:56.491Z,97504.97
2022-10-02T20:24:01.291Z,97512.53
2022-10-02T20:27:08.164Z,97512.34
2022-10-02T20:30:13.316Z,97513.78
2022-10-02T20:33:19.245Z,97505.09
2022-10-02T20:36:26.222Z,97501.97
2022-10-02T20:39:30.779Z,97510.00
2022-10-02T20:42:37.081Z,97501.63
2022-10-02T20:45:40.903Z,97500.69
2022-10-02T20:49:09.734Z,97496.63
2022-10-02T20:52:34.682Z,97490.09
2022-10-02T20:55:43.360Z,97496.69
2022-10-02T20:59:07.517Z,97486.38
2022-10-02T21:02:19.139Z,97478.69
2022-10-02T21:05:31.340Z,97485.28
2022-10-02T21:08:53.023Z,97487.34
2022-10-02T21:12:16.552Z,97492.38
2022-10-02T21:15:30.025Z,97487.28
2022-10-02T21:18:53.442Z,97500.78
2022-10-02T21:22:22.456Z,97529.56
2022-10-02T21:25:55.177Z,97528.19
2022-10-02T21:29:15.417Z,97521.91
2022-10-02T21:32:36.517Z,97513.19
2022-10-02T21:35:45.936Z,97528.63
2022-10-02T21:39:06.002Z,97530.16
2022-10-02T21:42:31.856Z,97529.63
2022-10-02T21:46:01.657Z,97512.69
2022-10-02T21:49:25.161Z,97514.50
2022-10-02T21:52:46.166Z,97516.00
2022-10-02T21:56:07.257Z,97529.56
2022-10-02T21:59:29.125Z,97526.31
2022-10-02T22:02:43.541Z,97503.13
2022-10-02T22:06:05.352Z,97497.75
2022-10-02T22:09:21.571Z,97507.84
2022-10-02T22:12:39.785Z,97522.41
2022-10-02T22:15:49.325Z,97523.63
2022-10-02T22:18:55.552Z,97517.44
2022-10-02T22:22:05.172Z,97520.72
2022-10-02T22:25:13.894Z,97529.13
2022-10-02T22:28:23.637Z,97539.22
2022-10-02T22:31:41.734Z,97541.03
2022-10-02T22:34:50.130Z,97534.16
2022-10-02T22:38:01.074Z,97541.88
2022-10-02T22:41:08.242Z,97534.81
2022-10-02T22:44:18.620Z,97538.69
2022-10-02T22:47:28.702Z,97526.63
2022-10-02T22:50:36.344Z,97529.22
2022-10-02T22:53:42.618Z,97528.53
2022-10-02T22:56:51.282Z,97542.28
2022-10-02T22:59:56.654Z,97545.38
2022-10-02T23:03:03.839Z,97555.13
2022-10-02T23:06:14.991Z,97551.06
2022-10-02T23:09:19.813Z,97555.88
2022-10-02T23:12:28.070Z,97550.41
2022-10-02T23:15:35.738Z,97556.91
2022-10-02T23:18:41.938Z,97556.97
2022-10-02T23:21:48.676Z,97560.16
2022-10-02T23:24:55.573Z,97552.31
2022-10-02T23:28:02.645Z,97554.00
2022-10-02T23:31:09.545Z,97557.38
2022-10-02T23:34:15.556Z,97561.91
2022-10-02T23:37:24.015Z,97565.53
2022-10-02T23:40:42.970Z,97561.63
2022-10-02T23:43:48.857Z,97569.13
2022-10-02T23:47:00.542Z,97569.22
2022-10-02T23:50:03.472Z,97564.59
2022-10-02T23:53:18.160Z,97571.91
2022-10-02T23:56:35.707Z,97577.66
2022-10-02T23:59:44.739Z,97569.53
